createdAt,value
2018-09-18T00:00:22.635Z,1012.7
2018-09-18T00:05:23.323Z,1012.7
2018-09-18T00:10:23.876Z,1012.6
2018-09-18T00:15:22.587Z,1012.6
2018-09-18T00:20:24.347Z,1012.5
2018-09-18T00:25:24.205Z,1012.5
2018-09-18T00:30:23.243Z,1012.4
2018-09-18T00:35:22.434Z,1012.3
2018-09-18T00:40:22.593Z,1012.3
2018-09-18T00:45:22.488Z,1012.2
2018-09-18T00:50:22.888Z,1012.2
2018-09-18T00:55:22.209Z,1012.2
2018-09-18T01:00:22.475Z,1012.1
2018-09-18T01:05:23.349Z,1012
2018-09-18T01:10:23.145Z,1012
2018-09-18T01:15:22.840Z,1011.9
2018-09-18T01:20:23.902Z,1011.9
2018-09-18T01:25:23.100Z,1011.8
2018-09-18T01:30:22.615Z,1011.8
2018-09-18T01:35:22.980Z,1011.7
2018-09-18T01:40:22.497Z,1011.8
2018-09-18T01:45:22.748Z,1011.8
2018-09-18T01:50:22.811Z,1011.7
2018-09-18T01:55:23.746Z,1011.7
2018-09-18T02:00:22.849Z,1011.7
2018-09-18T02:05:27.879Z,1011.6
2018-09-18T02:10:24.914Z,1011.5
2018-09-18T02:15:22.973Z,1011.5
2018-09-18T02:20:23.258Z,1011.4
2018-09-18T02:25:24.002Z,1011.4
2018-09-18T02:30:22.599Z,1011.4
2018-09-18T02:35:23.583Z,1011.4
2018-09-18T02:40:24.384Z,1011.2
2018-09-18T02:45:22.720Z,1011.2
2018-09-18T02:50:22.580Z,1011.1
2018-09-18T02:55:22.615Z,1011.1
2018-09-18T03:00:23.456Z,1011
2018-09-18T03:05:26.961Z,1011
2018-09-18T03:10:23.443Z,1011
2018-09-18T03:15:23.563Z,1011
2018-09-18T03:20:24.817Z,1010.9
2018-09-18T03:25:22.222Z,1010.8
2018-09-18T03:30:22.613Z,1010.8
2018-09-18T03:35:22.198Z,1010.8
2018-09-18T03:40:22.252Z,1010.7
2018-09-18T03:45:22.685Z,1010.7
2018-09-18T03:50:22.928Z,1010.7
2018-09-18T03:55:24.002Z,1010.6
2018-09-18T04:00:25.177Z,1010.6
2018-09-18T04:05:23.454Z,1010.6
2018-09-18T04:10:34.414Z,1010.6
2018-09-18T04:15:22.563Z,1010.6
2018-09-18T04:20:23.602Z,1010.5
2018-09-18T04:25:22.332Z,1010.4
2018-09-18T04:30:22.577Z,1010.4
2018-09-18T04:35:22.546Z,1010.4
2018-09-18T04:40:23.945Z,1010.4
2018-09-18T04:45:22.218Z,1010.4
2018-09-18T04:50:22.545Z,1010.4
2018-09-18T04:55:22.984Z,1010.3
2018-09-18T05:00:22.367Z,1010.3
2018-09-18T05:05:28.108Z,1010.2
2018-09-18T05:10:24.667Z,1010.2
2018-09-18T05:15:23.164Z,1010.2
2018-09-18T05:20:25.623Z,1010.2
2018-09-18T05:25:22.347Z,1010.2
2018-09-18T05:30:22.365Z,1010
2018-09-18T05:35:22.128Z,1010.1
2018-09-18T05:40:22.386Z,1010
2018-09-18T05:45:22.169Z,1010.1
2018-09-18T05:50:22.621Z,1010
2018-09-18T05:55:22.231Z,1010
2018-09-18T06:00:22.153Z,1010.1
2018-09-18T06:05:22.207Z,1010
2018-09-18T06:10:23.653Z,1010
2018-09-18T06:15:22.056Z,1010.1
2018-09-18T06:20:22.410Z,1010.1
2018-09-18T06:25:22.104Z,1010.1
2018-09-18T06:30:21.865Z,1010.1
2018-09-18T06:35:22.040Z,1010.1
2018-09-18T06:40:24.944Z,1010.2
2018-09-18T06:45:22.047Z,1010.2
2018-09-18T06:50:22.147Z,1010.3
2018-09-18T06:55:22.297Z,1010.3
2018-09-18T07:00:22.007Z,1010.3
2018-09-18T07:05:22.105Z,1010.2
2018-09-18T07:10:22.189Z,1010.3
2018-09-18T07:15:22.089Z,1010.3
2018-09-18T07:20:22.085Z,1010.4
2018-09-18T07:25:21.911Z,1010.4
2018-09-18T07:30:21.951Z,1010.5
2018-09-18T07:35:21.812Z,1010.5
2018-09-18T07:40:21.758Z,1010.5
2018-09-18T07:45:22.551Z,1010.5
2018-09-18T07:50:21.725Z,1010.5
2018-09-18T07:55:21.968Z,1010.5
2018-09-18T08:00:22.026Z,1010.6
2018-09-18T08:05:22.337Z,1010.6
2018-09-18T08:10:22.109Z,1010.7
2018-09-18T08:15:21.921Z,1010.7
2018-09-18T08:20:21.699Z,1010.7
2018-09-18T08:25:22.225Z,1010.7
2018-09-18T08:30:22.000Z,1010.7
2018-09-18T08:35:21.679Z,1010.8
2018-09-18T08:40:21.793Z,1010.8
2018-09-18T08:45:21.970Z,1010.8
2018-09-18T08:50:24.972Z,1010.8
2018-09-18T08:55:21.986Z,1010.8
2018-09-18T09:00:22.004Z,1010.8
2018-09-18T09:05:21.793Z,1010.9
2018-09-18T09:10:21.814Z,1010.8
2018-09-18T09:15:22.098Z,1011
2018-09-18T09:20:21.921Z,1011
2018-09-18T09:25:21.836Z,1011.2
2018-09-18T09:30:21.639Z,1011.1
2018-09-18T09:35:21.967Z,1011.2
2018-09-18T09:40:21.996Z,1011.2
2018-09-18T09:45:22.179Z,1011.2
2018-09-18T09:50:21.785Z,1011.1
2018-09-18T09:55:22.582Z,1011.2
2018-09-18T10:00:21.923Z,1011.4
2018-09-18T10:05:21.822Z,1011.3
2018-09-18T10:10:22.127Z,1011.5
2018-09-18T10:15:21.472Z,1011.5
2018-09-18T10:20:22.077Z,1011.6
2018-09-18T10:25:23.263Z,1011.5
2018-09-18T10:30:21.783Z,1011.6
2018-09-18T10:35:21.768Z,1011.7
2018-09-18T10:40:22.191Z,1011.7
2018-09-18T10:45:21.645Z,1011.6
2018-09-18T10:50:21.856Z,1011.7
2018-09-18T10:55:22.197Z,1011.7
2018-09-18T11:00:21.380Z,1011.7
2018-09-18T11:05:21.765Z,1011.7
2018-09-18T11:10:21.969Z,1011.7
2018-09-18T11:15:21.504Z,1011.6
2018-09-18T11:20:21.593Z,1011.6
2018-09-18T11:25:21.880Z,1011.6
2018-09-18T11:30:21.770Z,1011.7
2018-09-18T11:35:21.545Z,1011.7
2018-09-18T11:40:21.503Z,1011.8
2018-09-18T11:45:21.744Z,1011.7
2018-09-18T11:50:21.446Z,1011.8
2018-09-18T11:55:21.707Z,1011.8
2018-09-18T12:00:21.591Z,1011.8
2018-09-18T12:05:21.328Z,1011.7
2018-09-18T12:10:22.126Z,1011.7
2018-09-18T12:15:22.138Z,1011.7
2018-09-18T12:20:21.656Z,1011.7
2018-09-18T12:25:21.952Z,1011.8
2018-09-18T12:30:21.462Z,1011.7
2018-09-18T12:35:21.893Z,1011.7
2018-09-18T12:40:21.456Z,1011.8
2018-09-18T12:45:22.224Z,1011.8
2018-09-18T12:50:22.163Z,1011.9
2018-09-18T12:55:21.388Z,1011.9
2018-09-18T13:00:21.485Z,1011.9
2018-09-18T13:05:21.576Z,1011.9
2018-09-18T13:10:22.447Z,1011.8
2018-09-18T13:15:22.050Z,1012
2018-09-18T13:20:21.754Z,1012
2018-09-18T13:25:21.265Z,1012
2018-09-18T13:30:21.463Z,1012.1
2018-09-18T13:35:21.311Z,1011.9
2018-09-18T13:40:21.328Z,1012.1
2018-09-18T13:45:21.371Z,1012.1
2018-09-18T13:50:21.572Z,1012
2018-09-18T13:55:21.728Z,1012
2018-09-18T14:00:21.431Z,1012
2018-09-18T14:05:21.957Z,1012
2018-09-18T14:10:22.578Z,1012.1
2018-09-18T14:15:21.906Z,1012.2
2018-09-18T14:20:21.591Z,1012.2
2018-09-18T14:25:21.453Z,1012.3
2018-09-18T14:30:21.311Z,1012.3
2018-09-18T14:35:21.464Z,1012.4
2018-09-18T14:40:21.507Z,1012.4
2018-09-18T14:45:21.381Z,1012.5
2018-09-18T14:50:21.420Z,1012.5
2018-09-18T14:55:21.314Z,1012.5
2018-09-18T15:00:43.136Z,1012.5
2018-09-18T15:05:21.679Z,1012.6
2018-09-18T15:10:21.565Z,1012.8
2018-09-18T15:15:21.501Z,1012.7
2018-09-18T15:20:21.462Z,1012.7
2018-09-18T15:25:21.382Z,1012.8
2018-09-18T15:30:24.544Z,1012.8
2018-09-18T15:35:21.476Z,1012.9
2018-09-18T15:40:21.168Z,1012.8
2018-09-18T15:45:21.251Z,1012.9
2018-09-18T15:50:21.376Z,1012.9
2018-09-18T15:55:22.160Z,1013
2018-09-18T16:00:21.802Z,1013.1
2018-09-18T16:05:21.501Z,1013.1
2018-09-18T16:10:21.286Z,1013.2
2018-09-18T16:15:21.432Z,1013.2
2018-09-18T16:20:21.668Z,1013.3
2018-09-18T16:25:21.282Z,1013.4
2018-09-18T16:30:21.667Z,1013.4
2018-09-18T16:35:21.491Z,1013.4
2018-09-18T16:40:21.711Z,1013.4
2018-09-18T16:45:21.532Z,1013.4
2018-09-18T16:50:21.417Z,1013.5
2018-09-18T16:55:21.491Z,1013.6
2018-09-18T17:00:21.279Z,1013.7
2018-09-18T17:05:21.421Z,1013.8
2018-09-18T17:10:26.044Z,1013.8
2018-09-18T17:15:21.317Z,1013.8
2018-09-18T17:20:21.924Z,1013.9
2018-09-18T17:25:21.508Z,1013.9
2018-09-18T17:30:22.458Z,1014
2018-09-18T17:35:29.586Z,1014
2018-09-18T17:40:27.177Z,1014
2018-09-18T17:45:21.439Z,1014.1
2018-09-18T17:50:25.575Z,1014.1
2018-09-18T17:55:21.278Z,1014.2
2018-09-18T18:00:20.918Z,1014.2
2018-09-18T18:05:21.213Z,1014.2
2018-09-18T18:10:21.748Z,1014.4
2018-09-18T18:15:21.470Z,1014.5
2018-09-18T18:20:21.514Z,1014.4
2018-09-18T18:25:21.779Z,1014.4
2018-09-18T18:30:21.724Z,1014.5
2018-09-18T18:35:20.863Z,1014.6
2018-09-18T18:40:22.896Z,1014.8
2018-09-18T18:45:20.898Z,1014.9
2018-09-18T18:50:20.814Z,1014.9
2018-09-18T18:55:20.887Z,1015
2018-09-18T19:00:22.047Z,1015
2018-09-18T19:05:20.814Z,1015.1
2018-09-18T19:10:20.901Z,1015.1
2018-09-18T19:15:20.907Z,1015.1
2018-09-18T19:20:20.876Z,1015.2
2018-09-18T19:25:20.822Z,1015.2
2018-09-18T19:30:20.706Z,1015.3
2018-09-18T19:35:20.924Z,1015.3
2018-09-18T19:40:20.654Z,1015.4
2018-09-18T19:45:20.565Z,1015.4
2018-09-18T19:50:20.877Z,1015.4
2018-09-18T19:55:20.603Z,1015.3
2018-09-18T20:00:20.717Z,1015.4
2018-09-18T20:05:20.724Z,1015.4
2018-09-18T20:10:20.613Z,1015.5
2018-09-18T20:15:20.660Z,1015.4
2018-09-18T20:20:20.666Z,1015.4
2018-09-18T20:25:20.618Z,1015.4
2018-09-18T20:30:20.680Z,1015.5
2018-09-18T20:35:20.790Z,1015.4
2018-09-18T20:40:20.650Z,1015.5
2018-09-18T20:45:20.604Z,1015.5
2018-09-18T20:50:20.674Z,1015.4
2018-09-18T20:55:20.693Z,1015.5
2018-09-18T21:00:20.726Z,1015.5
2018-09-18T21:05:20.507Z,1015.5
2018-09-18T21:10:20.512Z,1015.5
2018-09-18T21:15:20.784Z,1015.5
2018-09-18T21:20:20.749Z,1015.5
2018-09-18T21:25:20.807Z,1015.4
2018-09-18T21:30:20.756Z,1015.5
2018-09-18T21:35:20.725Z,1015.4
2018-09-18T21:40:20.722Z,1015.4
2018-09-18T21:45:20.671Z,1015.4
2018-09-18T21:50:20.762Z,1015.3
2018-09-18T21:55:20.702Z,1015.4
2018-09-18T22:00:20.661Z,1015.4
2018-09-18T22:05:20.753Z,1015.5
2018-09-18T22:10:20.513Z,1015.5
2018-09-18T22:15:20.871Z,1015.5
2018-09-18T22:20:20.391Z,1015.6
2018-09-18T22:25:20.359Z,1015.7
2018-09-18T22:30:20.641Z,1015.7
2018-09-18T22:35:20.565Z,1015.7
2018-09-18T22:40:20.425Z,1015.8
2018-09-18T22:45:20.771Z,1015.8
2018-09-18T22:50:20.310Z,1015.8
2018-09-18T22:55:20.439Z,1015.8
2018-09-18T23:00:20.374Z,1015.9
2018-09-18T23:05:22.872Z,1015.9
2018-09-18T23:10:22.486Z,1016
2018-09-18T23:15:22.523Z,1016
2018-09-18T23:20:21.132Z,1015.9
2018-09-18T23:25:22.027Z,1015.9
2018-09-18T23:30:20.899Z,1015.9
2018-09-18T23:35:24.746Z,1016
2018-09-18T23:40:23.214Z,1016
2018-09-18T23:45:20.601Z,1016
2018-09-18T23:50:20.504Z,1015.9
2018-09-18T23:55:20.552Z,1015.9
